Time;durP1;ratioP1;P1;durP2;ratioP2;P2;SDS_P1;SDS_P2;PMS_P1;PMS_P2;Temp;Humidity;BMP_temperature;BMP_pressure;BME280_temperature;BME280_humidity;BME280_pressure;Samples;Min_cycle;Max_cycle;Signal;HPM_P1;HPM_P2
2021/11/22 00:01:04;;;;;;;22.17;8.82;;;;;;;3.87;100.00;98814.31;5025977;28;20049;-83
2021/11/22 00:03:38;;;;;;;21.55;8.60;;;;;;;3.85;100.00;98816.28;5033986;28;20049;-84
2021/11/22 00:06:22;;;;;;;22.60;9.27;;;;;;;3.85;100.00;98827.91;5031771;28;20038;-84
2021/11/22 00:08:49;;;;;;;21.00;8.93;;;;;;;3.75;100.00;98807.41;5028554;28;20049;-84
2021/11/22 00:11:23;;;;;;;21.65;9.00;;;;;;;3.81;100.00;98810.38;5020276;28;20057;-84
2021/11/22 00:13:51;;;;;;;20.95;8.90;;;;;;;3.90;100.00;98820.22;5033229;28;20060;-84
2021/11/22 00:16:22;;;;;;;17.48;8.13;;;;;;;3.80;100.00;98818.59;5034058;28;20128;-84
2021/11/22 00:19:35;;;;;;;;;;;;;;;;;;;;;
2021/11/22 00:22:05;;;;;;;29.60;11.60;;;;;;;3.60;100.00;98799.00;5033694;28;20049;-84
2021/11/22 00:24:44;;;;;;;25.60;9.27;;;;;;;3.75;100.00;98824.41;5014030;28;20825;-83
2021/11/22 00:27:17;;;;;;;18.42;10.05;;;;;;;3.77;100.00;98817.03;5014235;28;20049;-84
2021/11/22 00:29:46;;;;;;;18.92;9.10;;;;;;;3.82;100.00;98827.34;5022186;28;20053;-84
2021/11/22 00:32:14;;;;;;;22.10;9.30;;;;;;;3.78;100.00;98837.56;5033976;28;20056;-83
2021/11/22 00:35:14;;;;;;;25.25;8.90;;;;;;;3.71;100.00;98829.22;5026037;28;20081;-83
2021/11/22 00:37:50;;;;;;;19.98;9.75;;;;;;;3.74;100.00;98851.44;5027893;28;20050;-84
2021/11/22 00:40:25;;;;;;;21.33;9.88;;;;;;;3.78;100.00;98837.56;5033700;28;20053;-84
2021/11/22 00:43:23;;;;;;;19.33;9.23;;;;;;;3.80;100.00;98845.47;5033806;28;20152;-84
2021/11/22 00:45:53;;;;;;;20.05;9.43;;;;;;;3.68;100.00;98837.59;5032419;28;20051;-84
2021/11/22 00:48:32;;;;;;;;;;;;;;;3.80;100.00;98853.53;5034146;28;20045;-83
2021/11/22 00:51:10;;;;;;;18.33;8.52;;;;;;;3.72;100.00;98854.28;5032356;28;19921;-84
2021/11/22 00:53:59;;;;;;;20.27;9.77;;;;;;;3.81;100.00;98847.16;5033304;28;20052;-84
2021/11/22 00:56:28;;;;;;;22.35;10.35;;;;;;;3.86;100.00;98859.16;5033114;28;20497;-83
2021/11/22 00:58:56;;;;;;;26.80;10.77;;;;;;;3.82;100.00;98856.91;5027143;28;20503;-84
2021/11/22 01:01:26;;;;;;;21.45;10.27;;;;;;;3.81;100.00;98864.16;5033596;28;20056;-83
2021/11/22 01:03:54;;;;;;;20.02;10.15;;;;;;;3.71;100.00;98852.59;5032368;28;20041;-83
2021/11/22 01:06:25;;;;;;;21.58;11.23;;;;;;;3.75;100.00;98864.75;5033367;28;20045;-84
2021/11/22 01:08:55;;;;;;;18.88;10.60;;;;;;;3.62;100.00;98858.84;5033009;28;20132;-84
2021/11/22 01:11:26;;;;;;;25.75;10.57;;;;;;;3.68;100.00;98869.84;5032808;28;20053;-84
2021/11/22 01:13:57;;;;;;;22.98;10.60;;;;;;;3.71;100.00;98866.03;5033711;28;20042;-84
2021/11/22 01:16:35;;;;;;;19.02;10.50;;;;;;;3.82;100.00;98881.94;5033881;28;20148;-84
2021/11/22 01:20:02;;;;;;;20.92;11.18;;;;;;;3.66;100.00;98871.84;5032825;28;20396;-85
2021/11/22 01:23:31;;;;;;;;;;;;;;;;;;;;;
2021/11/22 01:26:05;;;;;;;21.80;10.00;;;;;;;3.84;100.00;98892.56;5027739;28;20046;-83
2021/11/22 01:28:32;;;;;;;20.30;11.35;;;;;;;3.79;100.00;98892.16;5030759;28;20418;-83
2021/11/22 01:31:05;;;;;;;23.02;11.27;;;;;;;3.83;100.00;98888.19;5032532;28;20037;-83
2021/11/22 01:33:33;;;;;;;20.42;10.73;;;;;;;3.88;100.00;98891.28;5032629;28;20099;-83
2021/11/22 01:36:00;;;;;;;27.52;12.20;;;;;;;3.77;100.00;98888.78;5033315;28;20049;-83
2021/11/22 01:38:28;;;;;;;22.10;10.57;;;;;;;3.78;100.00;98891.34;5033122;28;20049;-83
2021/11/22 01:40:55;;;;;;;22.70;11.60;;;;;;;3.82;100.00;98887.34;5033325;28;20057;-83
2021/11/22 01:43:26;;;;;;;22.15;11.50;;;;;;;3.93;100.00;98906.97;5032998;28;20123;-83
2021/11/22 01:45:53;;;;;;;25.63;10.95;;;;;;;3.68;100.00;98887.84;5033389;28;20401;-83
2021/11/22 01:48:29;;;;;;;23.52;12.05;;;;;;;3.77;100.00;98880.72;5032619;28;20057;-82
2021/11/22 01:50:57;;;;;;;28.38;12.85;;;;;;;3.87;100.00;98903.88;5033072;28;20378;-83
2021/11/22 01:53:25;;;;;;;37.70;14.35;;;;;;;3.71;100.00;98884.84;5033330;28;20448;-82
2021/11/22 01:55:52;;;;;;;26.40;12.57;;;;;;;3.71;100.00;98893.75;5032672;28;20049;-82
2021/11/22 01:58:19;;;;;;;33.45;13.43;;;;;;;3.72;100.00;98887.38;5032835;28;20408;-81
2021/11/22 02:00:48;;;;;;;32.08;14.02;;;;;;;3.70;100.00;98883.16;5033014;28;20057;-81
2021/11/22 02:03:17;;;;;;;37.67;14.57;;;;;;;3.62;100.00;98875.81;5025587;28;20053;-82
2021/11/22 02:05:45;;;;;;;27.92;12.80;;;;;;;3.73;100.00;98898.97;5026402;28;20050;-82
2021/11/22 02:08:16;;;;;;;31.55;15.15;;;;;;;3.71;100.00;98890.22;5015262;28;20045;-82
2021/11/22 02:10:43;;;;;;;31.38;15.18;;;;;;;3.75;100.00;98888.94;5018043;28;20054;-81
2021/11/22 02:13:10;;;;;;;32.95;14.80;;;;;;;3.74;100.00;98884.56;5032927;28;20060;-81
2021/11/22 02:15:37;;;;;;;34.60;15.90;;;;;;;3.81;100.00;98884.78;5033043;28;20053;-81
2021/11/22 02:18:05;;;;;;;35.83;16.63;;;;;;;3.82;100.00;98902.63;5032585;28;20046;-81
2021/11/22 02:20:34;;;;;;;27.33;14.25;;;;;;;3.68;100.00;98890.53;5032876;28;20057;-81
2021/11/22 02:23:03;;;;;;;32.65;16.05;;;;;;;3.59;100.00;98889.56;5028530;28;20053;-81
2021/11/22 02:25:32;;;;;;;33.00;15.25;;;;;;;3.58;100.00;98885.16;5032668;28;20084;-80
2021/11/22 02:28:00;;;;;;;36.63;15.50;;;;;;;3.54;100.00;98883.78;5032281;28;20503;-80
2021/11/22 02:30:31;;;;;;;34.75;15.23;;;;;;;3.55;100.00;98893.53;5032977;28;20056;-80
2021/11/22 02:32:59;;;;;;;29.77;15.10;;;;;;;3.62;100.00;98897.31;5032927;28;20485;-80
2021/11/22 02:35:27;;;;;;;32.70;14.70;;;;;;;3.62;100.00;98907.25;5032532;28;20576;-80
2021/11/22 02:37:55;;;;;;;30.90;14.77;;;;;;;3.74;100.00;98916.81;5032327;28;20065;-80
2021/11/22 02:40:22;;;;;;;33.47;15.15;;;;;;;3.71;100.00;98909.88;5032083;28;20056;-80
2021/11/22 02:42:49;;;;;;;32.15;15.25;;;;;;;3.49;100.00;98891.44;5032271;28;20056;-80
2021/11/22 02:45:18;;;;;;;29.35;14.77;;;;;;;3.47;100.00;98890.75;5035902;28;20389;-80
2021/11/22 02:47:46;;;;;;;35.65;15.30;;;;;;;3.56;100.00;98911.34;5035310;28;20060;-80
2021/11/22 02:50:14;;;;;;;30.45;14.85;;;;;;;3.43;100.00;98898.22;5027576;28;20041;-80
2021/11/22 02:52:42;;;;;;;26.80;13.45;;;;;;;3.40;100.00;98893.16;5035554;28;20046;-80
2021/11/22 02:55:13;;;;;;;29.92;14.63;;;;;;;3.48;100.00;98905.88;5035890;28;20103;-80
2021/11/22 02:57:40;;;;;;;31.27;14.18;;;;;;;3.54;100.00;98921.41;5035624;28;20049;-80
2021/11/22 03:00:10;;;;;;;31.38;15.15;;;;;;;3.53;100.00;98909.81;5035912;28;20053;-80
2021/11/22 03:02:37;;;;;;;27.02;14.60;;;;;;;3.41;100.00;98902.06;5035777;28;20052;-80
2021/11/22 03:05:05;;;;;;;31.67;14.98;;;;;;;3.54;100.00;98914.19;5035742;28;20081;-81
2021/11/22 03:07:32;;;;;;;30.42;14.00;;;;;;;3.45;100.00;98908.88;5035202;28;20374;-80
2021/11/22 03:09:58;;;;;;;27.90;13.98;;;;;;;3.60;100.00;98928.91;5035922;28;20060;-80
2021/11/22 03:12:27;;;;;;;32.58;15.02;;;;;;;3.60;100.00;98928.91;5035076;28;20046;-80
2021/11/22 03:14:54;;;;;;;31.90;14.70;;;;;;;3.63;100.00;98931.28;5035663;28;20095;-80
2021/11/22 03:17:21;;;;;;;30.60;15.43;;;;;;;3.63;100.00;98931.28;5035595;28;20057;-80
2021/11/22 03:19:48;;;;;;;28.30;13.00;;;;;;;3.42;100.00;98918.06;5035731;28;20053;-80
2021/11/22 03:22:15;;;;;;;29.27;13.80;;;;;;;3.58;100.00;98930.03;5035305;28;20053;-80
2021/11/22 03:24:41;;;;;;;37.67;14.65;;;;;;;3.54;100.00;98924.09;5035113;28;20103;-80
2021/11/22 03:27:38;;;;;;;29.48;13.25;;;;;;;3.60;100.00;98944.16;5035353;28;20481;-80
2021/11/22 03:30:08;;;;;;;32.35;15.13;;;;;;;3.56;100.00;98946.31;5015887;28;20134;-79
2021/11/22 03:32:35;;;;;;;31.20;13.52;;;;;;;3.47;100.00;98931.06;5026432;28;20045;-79
2021/11/22 03:35:02;;;;;;;34.72;15.43;;;;;;;3.47;100.00;98931.06;5035490;28;20058;-80
2021/11/22 03:37:29;;;;;;;33.22;16.38;;;;;;;3.62;100.00;98937.66;5025949;28;20390;-79
2021/11/22 03:39:57;;;;;;;30.25;14.13;;;;;;;3.56;100.00;98940.94;5028248;28;20053;-79
2021/11/22 03:42:25;;;;;;;32.03;14.57;;;;;;;3.58;100.00;98943.47;5026554;28;20484;-79
2021/11/22 03:44:53;;;;;;;34.03;15.32;;;;;;;3.64;100.00;98945.56;5034860;28;20057;-79
2021/11/22 03:47:21;;;;;;;29.90;14.15;;;;;;;3.59;100.00;98942.50;5034602;28;20128;-79
2021/11/22 03:49:48;;;;;;;32.95;15.48;;;;;;;3.51;100.00;98944.06;5015407;28;20062;-79
2021/11/22 03:52:15;;;;;;;30.30;14.63;;;;;;;3.56;100.00;98948.16;5018536;28;20053;-79
2021/11/22 03:54:42;;;;;;;32.10;13.35;;;;;;;3.64;100.00;98967.91;5031657;28;20412;-79
2021/11/22 03:57:11;;;;;;;31.75;14.25;;;;;;;3.54;100.00;98959.88;5034838;28;20485;-79
2021/11/22 03:59:38;;;;;;;32.63;15.02;;;;;;;3.48;100.00;98948.88;5034792;28;20049;-79
2021/11/22 04:02:05;;;;;;;32.80;14.30;;;;;;;3.57;100.00;98965.94;5034876;28;20111;-79
2021/11/22 04:04:33;;;;;;;41.92;13.50;;;;;;;3.43;100.00;98949.28;5034519;28;20049;-80
2021/11/22 04:07:01;;;;;;;30.42;14.60;;;;;;;3.46;100.00;98964.28;5034299;28;20504;-79
2021/11/22 04:09:28;;;;;;;27.38;13.80;;;;;;;3.56;100.00;98969.66;5034598;28;20060;-79
2021/11/22 04:11:55;;;;;;;31.77;14.43;;;;;;;3.47;100.00;98958.75;5016036;28;20129;-79
2021/11/22 04:14:22;;;;;;;28.60;13.68;;;;;;;3.59;100.00;98970.19;5014527;28;20050;-81
2021/11/22 04:16:50;;;;;;;32.20;13.43;;;;;;;3.67;100.00;98982.91;5014859;28;20410;-79
2021/11/22 04:19:17;;;;;;;32.45;14.93;;;;;;;3.55;100.00;98966.09;5014764;28;20401;-80
2021/11/22 04:21:45;;;;;;;30.70;13.07;;;;;;;3.52;100.00;98963.69;5026770;28;20107;-80
2021/11/22 04:24:12;;;;;;;33.42;14.95;;;;;;;3.53;100.00;98954.66;5034718;28;20096;-80
2021/11/22 04:26:39;;;;;;;30.95;13.35;;;;;;;3.65;100.00;98972.31;5031159;28;20049;-82
2021/11/22 04:29:06;;;;;;;31.27;13.63;;;;;;;3.76;100.00;98975.81;5034232;28;20155;-81
2021/11/22 04:31:33;;;;;;;34.03;14.95;;;;;;;3.74;100.00;98973.28;5034025;28;20630;-81
2021/11/22 04:34:00;;;;;;;31.88;13.65;;;;;;;3.75;100.00;98984.88;5033582;28;20056;-80
2021/11/22 04:36:27;;;;;;;27.10;13.15;;;;;;;3.76;100.00;99000.84;5033624;28;20045;-81
2021/11/22 04:38:55;;;;;;;25.88;13.18;;;;;;;3.67;100.00;98999.91;5033422;28;20049;-81
2021/11/22 04:41:23;;;;;;;29.73;13.55;;;;;;;3.59;100.00;98991.72;5033507;28;20481;-81
2021/11/22 04:43:50;;;;;;;27.83;13.68;;;;;;;3.68;100.00;99003.44;5033572;28;20641;-81
2021/11/22 04:46:18;;;;;;;33.78;13.35;;;;;;;3.63;100.00;99003.00;5033188;28;20508;-81
2021/11/22 04:48:45;;;;;;;26.08;12.98;;;;;;;3.61;100.00;98999.63;5033675;28;20064;-82
2021/11/22 04:51:12;;;;;;;26.80;13.50;;;;;;;3.64;100.00;99007.41;5033533;28;20075;-81
2021/11/22 04:53:39;;;;;;;34.75;14.82;;;;;;;3.60;100.00;99004.16;5034242;28;20053;-81
2021/11/22 04:56:08;;;;;;;32.38;14.18;;;;;;;3.75;100.00;99018.00;5033534;28;20099;-81
2021/11/22 04:58:34;;;;;;;31.75;13.57;;;;;;;3.77;100.00;99018.69;5033338;28;20143;-81
2021/11/22 05:01:01;;;;;;;30.98;14.52;;;;;;;3.79;100.00;99019.38;5033586;28;20049;-81
2021/11/22 05:03:28;;;;;;;30.55;14.65;;;;;;;3.78;100.00;99017.72;5030936;28;20061;-81
2021/11/22 05:05:55;;;;;;;28.30;13.73;;;;;;;3.75;100.00;99020.69;5033030;28;20057;-81
2021/11/22 05:08:22;;;;;;;31.63;13.55;;;;;;;3.70;100.00;99009.50;5032959;28;20451;-82
2021/11/22 05:10:49;;;;;;;33.03;13.80;;;;;;;3.70;100.00;99021.13;5033434;28;20049;-81
2021/11/22 05:13:19;;;;;;;28.45;13.50;;;;;;;3.74;100.00;99016.31;5033489;28;20057;-81
2021/11/22 05:15:48;;;;;;;28.33;12.18;;;;;;;3.64;100.00;99019.00;5033297;28;20685;-81
2021/11/22 05:18:16;;;;;;;26.90;12.85;;;;;;;3.80;100.00;99039.91;5033238;28;20049;-81
2021/11/22 05:20:44;;;;;;;22.83;12.30;;;;;;;3.76;100.00;99034.97;5033146;28;20045;-81
2021/11/22 05:23:12;;;;;;;27.67;12.52;;;;;;;3.78;100.00;99039.22;5033070;28;20049;-81
2021/11/22 05:25:39;;;;;;;29.63;12.43;;;;;;;3.68;100.00;99030.31;5033608;28;20056;-81
2021/11/22 05:28:07;;;;;;;27.30;12.55;;;;;;;3.65;100.00;99025.25;5033353;28;20053;-81
2021/11/22 05:30:35;;;;;;;26.80;11.93;;;;;;;3.81;100.00;99047.00;5032800;28;20512;-81
2021/11/22 05:33:04;;;;;;;25.83;12.23;;;;;;;3.67;100.00;99042.94;5033556;28;20057;-81
2021/11/22 05:35:32;;;;;;;21.73;11.73;;;;;;;3.72;100.00;99056.78;5033226;28;20107;-81
2021/11/22 05:37:59;;;;;;;27.17;11.88;;;;;;;3.75;100.00;99055.66;5032330;28;20049;-81
2021/11/22 05:40:26;;;;;;;25.30;11.48;;;;;;;3.60;100.00;99054.38;5033052;28;20052;-81
2021/11/22 05:42:53;;;;;;;20.25;10.82;;;;;;;3.66;100.00;99048.44;5033181;28;20103;-81
2021/11/22 05:45:20;;;;;;;22.70;11.20;;;;;;;3.75;100.00;99076.28;5033002;28;20053;-81
2021/11/22 05:47:49;;;;;;;19.30;10.57;;;;;;;3.57;100.00;99058.22;5032669;28;20505;-81
2021/11/22 05:50:17;;;;;;;18.00;10.25;;;;;;;3.74;100.00;99078.16;5033156;28;20042;-81
2021/11/22 05:52:49;;;;;;;20.50;10.57;;;;;;;3.70;100.00;99065.97;5033097;28;20064;-81
2021/11/22 05:55:23;;;;;;;17.02;9.43;;;;;;;3.81;100.00;99078.41;5029344;28;20049;-80
2021/11/22 05:57:50;;;;;;;20.02;10.82;;;;;;;3.82;100.00;99072.03;5033066;28;20056;-80
2021/11/22 06:00:17;;;;;;;20.33;9.70;;;;;;;3.77;100.00;99090.47;5033185;28;20057;-81
2021/11/22 06:02:44;;;;;;;16.83;10.18;;;;;;;3.69;100.00;99067.81;5033126;28;20057;-81
2021/11/22 06:05:12;;;;;;;24.02;10.45;;;;;;;3.66;100.00;99072.66;5033242;28;20046;-81
2021/11/22 06:07:39;;;;;;;23.77;10.93;;;;;;;3.72;100.00;99075.59;5013091;28;20072;-81
2021/11/22 06:10:07;;;;;;;21.48;10.68;;;;;;;3.80;100.00;99074.88;5013234;28;20501;-81
2021/11/22 06:12:34;;;;;;;21.95;11.20;;;;;;;3.77;100.00;99080.53;5029678;28;20350;-81
2021/11/22 06:15:01;;;;;;;21.13;9.30;;;;;;;3.77;100.00;99090.47;5029178;28;20042;-81
2021/11/22 06:17:28;;;;;;;22.08;11.00;;;;;;;3.73;100.00;99076.44;5017635;28;20489;-81
2021/11/22 06:19:55;;;;;;;25.92;10.90;;;;;;;3.86;100.00;99101.19;5037035;28;20053;-81
2021/11/22 06:22:24;;;;;;;24.02;10.63;;;;;;;3.91;100.00;99100.75;5036189;28;20049;-81
2021/11/22 06:24:51;;;;;;;24.60;11.23;;;;;;;3.94;100.00;99105.00;5036807;28;20045;-81
2021/11/22 06:27:18;;;;;;;20.67;10.10;;;;;;;3.82;100.00;99089.03;5036453;28;20049;-81
2021/11/22 06:29:46;;;;;;;16.40;8.50;;;;;;;3.89;100.00;99108.13;5036112;28;20053;-81
2021/11/22 06:32:13;;;;;;;17.00;8.95;;;;;;;3.80;100.00;99084.78;5036814;28;20046;-81
2021/11/22 06:34:41;;;;;;;15.38;8.75;;;;;;;3.92;100.00;99110.53;5036695;28;20061;-81
2021/11/22 06:37:09;;;;;;;16.27;8.00;;;;;;;3.85;100.00;99099.53;5036531;28;20055;-81
2021/11/22 06:39:39;;;;;;;18.08;8.90;;;;;;;3.93;100.00;99116.75;5035573;28;20088;-81
2021/11/22 06:42:07;;;;;;;19.40;9.25;;;;;;;3.72;100.00;99110.56;5036196;28;20045;-81
2021/11/22 06:44:34;;;;;;;17.73;8.27;;;;;;;3.76;100.00;99137.16;5036238;28;20057;-81
2021/11/22 06:47:01;;;;;;;17.45;8.35;;;;;;;3.79;100.00;99143.09;5036277;28;20053;-81
2021/11/22 06:49:28;;;;;;;18.83;8.80;;;;;;;3.62;100.00;99123.16;5035800;28;20045;-81
2021/11/22 06:51:55;;;;;;;22.30;9.30;;;;;;;3.84;100.00;99151.59;5035905;28;20045;-81
2021/11/22 06:54:23;;;;;;;19.17;9.23;;;;;;;3.83;100.00;99139.13;5036414;28;20049;-81
2021/11/22 06:56:51;;;;;;;15.73;8.25;;;;;;;3.80;100.00;99149.34;5035422;28;20053;-81
2021/11/22 06:59:18;;;;;;;16.52;7.78;;;;;;;3.88;100.00;99150.34;5035718;28;20159;-80
2021/11/22 07:01:45;;;;;;;14.15;8.07;;;;;;;4.04;100.00;99160.50;5035909;28;20095;-80
2021/11/22 07:04:11;;;;;;;16.25;8.00;;;;;;;3.91;100.00;99159.94;5035627;28;20046;-80
2021/11/22 07:06:38;;;;;;;15.02;7.32;;;;;;;3.98;100.00;99160.22;5034660;28;20042;-81
2021/11/22 07:09:05;;;;;;;16.85;8.27;;;;;;;3.95;100.00;99155.13;5026314;28;20049;-80
2021/11/22 07:11:32;;;;;;;17.60;7.82;;;;;;;3.91;100.00;99173.38;5016543;28;20064;-80
2021/11/22 07:14:02;;;;;;;16.02;7.70;;;;;;;3.87;100.00;99163.91;5033224;28;20049;-81
2021/11/22 07:16:29;;;;;;;17.25;8.15;;;;;;;3.84;100.00;99154.28;5035260;28;20041;-81
2021/11/22 07:18:56;;;;;;;14.65;8.13;;;;;;;3.93;100.00;99171.41;5035035;28;20049;-81
2021/11/22 07:21:23;;;;;;;20.95;8.60;;;;;;;3.87;100.00;99162.06;5034692;28;20456;-81
2021/11/22 07:23:50;;;;;;;16.67;8.30;;;;;;;4.03;100.00;99187.53;5035569;28;20050;-81
2021/11/22 07:26:17;;;;;;;17.80;8.63;;;;;;;4.10;100.00;99185.97;5036099;28;20060;-80
2021/11/22 07:28:45;;;;;;;15.25;7.53;;;;;;;3.99;100.00;99188.81;5034881;28;20136;-81
2021/11/22 07:31:13;;;;;;;14.23;8.43;;;;;;;4.04;100.00;99191.94;5032684;28;20056;-80
2021/11/22 07:33:40;;;;;;;20.60;7.70;;;;;;;4.01;100.00;99208.38;5035763;28;20072;-80
2021/11/22 07:36:07;;;;;;;14.45;7.55;;;;;;;3.96;100.00;99191.78;5035497;28;20049;-80
2021/11/22 07:38:35;;;;;;;24.38;8.50;;;;;;;4.05;100.00;99197.19;5034308;28;20074;-80
2021/11/22 07:41:02;;;;;;;20.33;8.55;;;;;;;4.20;100.00;99218.25;5035029;28;20119;-80
2021/11/22 07:43:29;;;;;;;22.38;8.80;;;;;;;4.19;100.00;99206.66;5035475;28;20131;-80
2021/11/22 07:45:56;;;;;;;15.52;8.52;;;;;;;4.25;100.00;99222.22;5032220;28;20061;-79
2021/11/22 07:48:24;;;;;;;15.52;7.60;;;;;;;4.05;100.00;99207.06;5033542;28;20049;-80
2021/11/22 07:50:51;;;;;;;13.85;7.32;;;;;;;4.18;100.00;99209.47;5034979;28;20111;-80
2021/11/22 07:53:17;;;;;;;19.98;8.13;;;;;;;4.20;100.00;99221.81;5034856;28;20049;-80
2021/11/22 07:55:46;;;;;;;16.10;7.22;;;;;;;4.13;100.00;99219.84;5035245;28;20103;-80
2021/11/22 07:58:15;;;;;;;16.52;7.65;;;;;;;4.28;100.00;99225.63;5034641;28;20077;-80
2021/11/22 08:00:42;;;;;;;17.35;8.25;;;;;;;4.19;100.00;99221.97;5034753;28;20049;-80
2021/11/22 08:03:10;;;;;;;18.90;7.78;;;;;;;4.24;100.00;99228.59;5034438;28;20053;-80
2021/11/22 08:05:38;;;;;;;16.08;8.13;;;;;;;4.23;100.00;99221.53;5018216;28;20493;-80
2021/11/22 08:08:05;;;;;;;11.95;7.10;;;;;;;4.20;100.00;99229.88;5020576;28;20045;-80
2021/11/22 08:10:35;;;;;;;13.07;7.38;;;;;;;4.17;100.00;99223.91;5034561;28;20136;-80
2021/11/22 08:13:04;;;;;;;15.30;7.72;;;;;;;4.28;100.00;99252.56;5034709;28;20111;-80
2021/11/22 08:15:33;;;;;;;17.52;8.65;;;;;;;4.13;100.00;99241.38;5034729;28;20046;-80
2021/11/22 08:18:02;;;;;;;16.50;6.45;;;;;;;4.31;100.00;99268.41;5034179;28;20099;-80
2021/11/22 08:20:29;;;;;;;12.23;7.45;;;;;;;4.31;100.00;99260.34;5033545;28;20045;-80
2021/11/22 08:22:58;;;;;;;15.15;8.63;;;;;;;4.30;100.00;99258.63;5034535;28;20103;-80
2021/11/22 08:25:28;;;;;;;15.02;8.43;;;;;;;4.15;100.00;99264.41;5033673;28;20045;-81
2021/11/22 08:27:57;;;;;;;19.95;8.25;;;;;;;4.25;100.00;99261.75;5032688;28;20045;-80
2021/11/22 08:30:26;;;;;;;15.88;8.70;;;;;;;4.29;100.00;99275.75;5033828;28;20477;-80
2021/11/22 08:32:55;;;;;;;14.32;8.75;;;;;;;4.22;100.00;99254.78;5014916;28;20065;-80
2021/11/22 08:35:23;;;;;;;11.75;7.35;;;;;;;4.42;100.00;99276.31;5024037;28;20449;-80
2021/11/22 08:37:51;;;;;;;11.90;7.57;;;;;;;4.40;100.00;99287.22;5033226;28;20493;-80
2021/11/22 08:40:22;;;;;;;10.85;7.53;;;;;;;4.41;100.00;99288.06;5034155;28;20374;-80
2021/11/22 08:42:51;;;;;;;14.13;7.32;;;;;;;4.37;100.00;99278.59;5033986;28;20507;-80
2021/11/22 08:45:18;;;;;;;13.38;7.28;;;;;;;4.32;100.00;99281.72;5032659;28;20630;-80
2021/11/22 08:47:46;;;;;;;12.70;6.82;;;;;;;4.44;100.00;99295.88;5033398;28;20057;-80
2021/11/22 08:50:14;;;;;;;17.98;8.35;;;;;;;4.47;100.00;99300.13;5033724;28;20049;-80
2021/11/22 08:52:55;;;;;;;14.10;7.07;;;;;;;4.43;100.00;99299.56;5033583;28;20042;-81
2021/11/22 08:55:24;;;;;;;12.10;7.18;;;;;;;4.52;100.00;99296.00;5034007;28;20401;-80
2021/11/22 08:57:51;;;;;;;14.10;6.73;;;;;;;4.47;100.00;99292.91;5019821;28;20045;-80
2021/11/22 09:00:21;;;;;;;14.85;7.45;;;;;;;4.65;100.00;99302.94;5033469;28;20299;-82
2021/11/22 09:02:48;;;;;;;18.10;7.53;;;;;;;4.70;100.00;99314.16;5033327;28;20469;-81
2021/11/22 09:05:15;;;;;;;15.75;7.57;;;;;;;4.61;100.00;99292.47;5033532;28;20045;-82
2021/11/22 09:07:43;;;;;;;14.48;7.03;;;;;;;4.77;100.00;99326.91;5033437;28;20046;-79
2021/11/22 09:10:11;;;;;;;;;;;;;;;4.79;100.00;99324.91;5033761;28;20045;-79
2021/11/22 09:12:39;;;;;;;14.98;7.03;;;;;;;4.85;100.00;99328.88;5033476;28;20293;-79
2021/11/22 09:15:07;;;;;;;12.75;6.47;;;;;;;4.88;100.00;99333.13;5033313;28;20045;-79
2021/11/22 09:17:34;;;;;;;13.18;8.32;;;;;;;4.91;100.00;99320.19;5028905;28;20103;-79
2021/11/22 09:20:01;;;;;;;12.25;6.82;;;;;;;5.04;100.00;99340.59;5032938;28;20061;-80
2021/11/22 09:22:28;;;;;;;13.27;6.93;;;;;;;5.12;100.00;99341.56;5033772;28;20050;-80
2021/11/22 09:24:54;;;;;;;14.13;7.25;;;;;;;5.15;100.00;99335.06;5033480;28;20053;-80
2021/11/22 09:27:21;;;;;;;14.80;7.50;;;;;;;5.06;100.00;99334.06;5033364;28;20053;-80
2021/11/22 09:29:49;;;;;;;19.05;7.40;;;;;;;5.04;100.00;99346.81;5032983;28;20052;-80
2021/11/22 09:32:16;;;;;;;16.83;7.78;;;;;;;4.99;100.00;99338.34;5032989;28;20518;-80
2021/11/22 09:34:43;;;;;;;13.20;7.20;;;;;;;5.16;100.00;99350.19;5033655;28;20096;-80
2021/11/22 09:37:09;;;;;;;15.82;7.75;;;;;;;5.21;100.00;99341.69;5032916;28;20045;-80
2021/11/22 09:39:36;;;;;;;14.50;6.95;;;;;;;5.18;100.00;99344.66;5032359;28;20053;-80
2021/11/22 09:42:04;;;;;;;16.60;7.32;;;;;;;5.31;100.00;99355.97;5033049;28;20103;-80
2021/11/22 09:44:30;;;;;;;17.80;6.65;;;;;;;5.15;100.00;99337.75;5033433;28;20119;-80
2021/11/22 09:46:59;;;;;;;13.98;6.53;;;;;;;5.16;100.00;99349.38;5032730;28;20049;-80
2021/11/22 09:49:26;;;;;;;10.93;6.70;;;;;;;5.37;100.00;99341.06;5032527;28;20053;-80
2021/11/22 09:51:53;;;;;;;9.65;5.88;;;;;;;5.41;100.00;99361.34;5032380;28;20041;-80
2021/11/22 09:54:20;;;;;;;9.95;5.30;;;;;;;5.61;100.00;99364.81;5036236;28;20099;-80
2021/11/22 09:56:49;;;;;;;9.00;6.18;;;;;;;5.55;100.00;99360.88;5035810;28;20397;-80
2021/11/22 09:59:16;;;;;;;9.67;4.97;;;;;;;5.57;100.00;99366.97;5036850;28;20053;-80
2021/11/22 10:01:43;;;;;;;8.77;5.65;;;;;;;5.55;100.00;99366.25;5037145;28;20045;-81
2021/11/22 10:04:16;;;;;;;15.68;5.00;;;;;;;5.54;100.00;99377.19;5036634;28;20091;-80
2021/11/22 10:06:47;;;;;;;10.00;5.18;;;;;;;5.46;100.00;99375.25;5036904;28;20053;-80
2021/11/22 10:09:41;;;;;;;8.10;4.93;;;;;;;5.46;100.00;99370.69;5036640;28;20050;-80
2021/11/22 10:12:10;;;;;;;10.35;5.50;;;;;;;5.53;100.00;99379.06;5036548;28;20077;-80
2021/11/22 10:14:39;;;;;;;10.82;5.88;;;;;;;5.32;100.00;99374.72;5036509;28;20053;-80
2021/11/22 10:17:24;;;;;;;18.08;5.97;;;;;;;5.38;100.00;99380.53;5033589;28;20122;-81
2021/11/22 10:20:14;;;;;;;12.40;5.47;;;;;;;5.49;100.00;99383.91;5036121;28;20049;-81
2021/11/22 10:22:43;;;;;;;10.93;4.63;;;;;;;5.32;100.00;99381.97;5036196;28;20471;-81
2021/11/22 10:25:31;;;;;;;10.43;4.80;;;;;;;5.37;100.00;99386.91;5036453;28;20053;-81
2021/11/22 10:28:04;;;;;;;9.00;4.40;;;;;;;5.27;100.00;99371.63;5036525;28;20099;-81
2021/11/22 10:30:32;;;;;;;11.77;4.32;;;;;;;5.29;100.00;99380.41;5036672;28;20103;-81
2021/11/22 10:33:01;;;;;;;8.18;4.88;;;;;;;5.32;100.00;99390.88;5036019;28;20038;-81
2021/11/22 10:35:32;;;;;;;11.88;4.85;;;;;;;5.41;100.00;99391.03;5036329;28;20049;-81
2021/11/22 10:38:03;;;;;;;10.63;5.28;;;;;;;5.39;100.00;99384.91;5030086;28;20931;-81
2021/11/22 10:40:31;;;;;;;8.95;4.40;;;;;;;5.37;100.00;99393.13;5036327;28;20503;-81
2021/11/22 10:42:58;;;;;;;15.38;5.50;;;;;;;5.46;100.00;99399.50;5025606;28;20064;-81
2021/11/22 10:45:29;;;;;;;10.13;4.97;;;;;;;5.51;100.00;99399.94;5035937;28;20049;-81
2021/11/22 10:48:24;;;;;;;8.85;4.63;;;;;;;5.54;100.00;99399.63;5036553;28;20453;-81
2021/11/22 10:51:15;;;;;;;11.98;4.85;;;;;;;5.57;100.00;99391.25;5035998;28;20049;-81
2021/11/22 10:53:44;;;;;;;10.68;4.63;;;;;;;5.66;100.00;99403.84;5036194;28;20061;-81
2021/11/22 10:56:14;;;;;;;13.13;4.55;;;;;;;5.43;100.00;99386.31;5035842;28;20041;-81
2021/11/22 10:58:53;;;;;;;7.10;3.60;;;;;;;5.51;100.00;99399.94;5036040;28;20061;-81
2021/11/22 11:01:36;;;;;;;11.40;4.90;;;;;;;5.63;100.00;99398.75;5034784;28;20057;-81
2021/11/22 11:04:09;;;;;;;12.60;3.33;;;;;;;5.76;100.00;99406.50;5034723;28;20046;-81
2021/11/22 11:06:40;;;;;;;8.73;4.03;;;;;;;5.61;100.00;99410.69;5017329;28;20050;-81
2021/11/22 11:09:09;;;;;;;6.88;3.20;;;;;;;5.55;100.00;99403.19;5034771;28;20046;-81
2021/11/22 11:11:36;;;;;;;4.18;3.30;;;;;;;5.57;100.00;99409.25;5035395;28;20049;-81
2021/11/22 11:14:07;;;;;;;7.75;2.95;;;;;;;5.58;100.00;99402.88;5036159;28;20481;-81
2021/11/22 11:16:35;;;;;;;6.75;3.15;;;;;;;5.75;100.00;99415.59;5034350;28;20042;-81
2021/11/22 11:19:04;;;;;;;6.60;2.78;;;;;;;5.59;100.00;99405.44;5033840;28;20041;-81
2021/11/22 11:21:34;;;;;;;6.78;2.97;;;;;;;5.66;100.00;99406.56;5033886;28;20045;-81
2021/11/22 11:24:04;;;;;;;7.97;3.10;;;;;;;5.80;100.00;99407.91;5022530;28;20037;-81
2021/11/22 11:26:32;;;;;;;4.55;3.05;;;;;;;5.68;100.00;99419.88;5034260;28;20060;-81
2021/11/22 11:29:03;;;;;;;6.28;2.75;;;;;;;5.78;100.00;99423.41;5033195;28;20428;-81
2021/11/22 11:31:31;;;;;;;4.07;2.83;;;;;;;5.67;100.00;99415.47;5015835;28;20132;-81
2021/11/22 11:33:58;;;;;;;10.55;3.55;;;;;;;5.72;100.00;99418.59;5023135;28;20077;-82
2021/11/22 11:36:49;;;;;;;9.25;2.63;;;;;;;5.76;100.00;99433.47;5035923;28;20079;-81